Time;durP1;ratioP1;P1;durP2;ratioP2;P2;SDS_P1;SDS_P2;PMS_P1;PMS_P2;Temp;Humidity;BMP_temperature;BMP_pressure;BME280_temperature;BME280_humidity;BME280_pressure;Samples;Min_cycle;Max_cycle;Signal;HPM_P1;HPM_P2
2022/05/25 00:01:12;;;;;;;5.88;4.50;;;;;;;13.27;100.00;98021.19;2575559;28;20266;-80
2022/05/25 00:02:28;;;;;;;7.35;4.55;;;;;;;13.26;100.00;98017.69;2575212;28;20062;-81
2022/05/25 00:03:43;;;;;;;6.40;4.10;;;;;;;13.27;100.00;98019.41;2575840;28;20047;-80
2022/05/25 00:04:59;;;;;;;9.00;4.85;;;;;;;13.31;100.00;98028.00;2575807;28;20104;-80
2022/05/25 00:06:14;;;;;;;7.38;4.78;;;;;;;13.35;100.00;98024.31;2564398;28;20055;-82
2022/05/25 00:07:30;;;;;;;8.15;4.97;;;;;;;13.38;100.00;98031.22;2569146;28;20496;-81
2022/05/25 00:08:45;;;;;;;5.80;4.45;;;;;;;13.40;100.00;98030.19;2575735;28;20046;-81
2022/05/25 00:10:03;;;;;;;6.65;4.20;;;;;;;13.44;100.00;98032.75;2575928;28;20058;-80
2022/05/25 00:11:20;;;;;;;4.25;3.83;;;;;;;13.43;100.00;98026.56;2575394;28;20508;-80
2022/05/25 00:12:35;;;;;;;5.22;3.75;;;;;;;13.45;100.00;98037.91;2575608;28;20536;-83
2022/05/25 00:13:51;;;;;;;5.00;3.70;;;;;;;13.44;100.00;98030.94;2575523;28;20105;-81
2022/05/25 00:15:08;;;;;;;6.32;3.60;;;;;;;13.44;100.00;98030.09;2575689;28;20108;-81
2022/05/25 00:16:24;;;;;;;8.23;3.60;;;;;;;13.42;100.00;98027.50;2575666;28;20330;-79
2022/05/25 00:17:40;;;;;;;3.83;3.40;;;;;;;13.38;100.00;98024.16;2575581;28;20061;-82
2022/05/25 00:20:30;;;;;;;7.07;3.85;;;;;;;13.31;100.00;98028.00;2575826;28;20689;-84
2022/05/25 00:21:46;;;;;;;4.05;3.65;;;;;;;13.26;100.00;98027.34;2576079;28;20083;-80
2022/05/25 00:23:02;;;;;;;6.63;4.28;;;;;;;13.25;100.00;98031.78;2566454;28;20050;-80
2022/05/25 00:24:18;;;;;;;5.63;4.00;;;;;;;13.25;100.00;98030.91;2570937;28;20047;-80
2022/05/25 00:25:37;;;;;;;7.03;4.50;;;;;;;13.24;100.00;98024.81;2577275;28;20057;-81
2022/05/25 00:26:53;;;;;;;4.20;3.70;;;;;;;13.21;100.00;98031.97;2577867;28;20070;-81
2022/05/25 00:28:11;;;;;;;6.45;3.92;;;;;;;13.21;100.00;98029.34;2578058;28;20050;-82
2022/05/25 00:29:27;;;;;;;6.63;4.00;;;;;;;13.23;100.00;98035.38;2578931;28;20648;-80
2022/05/25 00:30:45;;;;;;;7.13;4.13;;;;;;;13.22;100.00;98025.78;2579210;28;20101;-81
2022/05/25 00:32:00;;;;;;;4.85;3.95;;;;;;;13.24;100.00;98026.56;2579672;28;20054;-80
2022/05/25 00:33:19;;;;;;;7.38;3.75;;;;;;;13.27;100.00;98022.03;2579757;28;20096;-81
2022/05/25 00:34:34;;;;;;;5.18;4.07;;;;;;;13.26;100.00;98027.34;2576926;28;20529;-80
2022/05/25 00:35:50;;;;;;;5.53;3.55;;;;;;;13.24;100.00;98027.44;2576984;28;20073;-80
2022/05/25 00:37:06;;;;;;;4.10;3.70;;;;;;;13.26;100.00;98024.72;2576710;28;20535;-80
2022/05/25 00:38:21;;;;;;;5.75;3.92;;;;;;;13.25;100.00;98023.00;2576946;28;20058;-79
2022/05/25 00:39:38;;;;;;;5.72;3.70;;;;;;;13.27;100.00;98023.81;2577081;28;20051;-80
2022/05/25 00:40:54;;;;;;;5.53;3.88;;;;;;;13.27;100.00;98022.03;2576642;28;20468;-79
2022/05/25 00:42:09;;;;;;;4.97;3.72;;;;;;;13.27;100.00;98023.81;2576432;28;20218;-79
2022/05/25 00:43:25;;;;;;;5.97;3.65;;;;;;;13.25;100.00;98017.75;2577035;28;20109;-79
2022/05/25 00:44:41;;;;;;;7.00;4.32;;;;;;;13.25;100.00;98016.00;2576833;28;20132;-79
2022/05/25 00:46:01;;;;;;;4.82;3.95;;;;;;;13.26;100.00;98016.84;2577114;28;20078;-80
2022/05/25 00:47:22;;;;;;;4.97;3.85;;;;;;;13.24;100.00;98016.91;2576545;28;20050;-80
2022/05/25 00:48:43;;;;;;;4.47;3.85;;;;;;;13.27;100.00;98016.78;2576931;28;20058;-83
2022/05/25 00:49:59;;;;;;;7.05;4.18;;;;;;;13.28;100.00;98018.47;2577149;28;20390;-79
2022/05/25 00:51:25;;;;;;;5.60;3.78;;;;;;;13.32;100.00;98021.81;2576333;28;20129;-79
2022/05/25 00:52:43;;;;;;;5.97;4.03;;;;;;;13.32;100.00;98026.22;2576368;28;20069;-80
2022/05/25 00:54:02;;;;;;;4.10;3.70;;;;;;;13.32;100.00;98024.44;2576304;28;20050;-79
2022/05/25 00:55:30;;;;;;;4.40;3.53;;;;;;;13.34;100.00;98019.97;2576667;28;20077;-80
2022/05/25 00:56:50;;;;;;;5.80;3.90;;;;;;;13.40;100.00;98019.66;2576747;28;20231;-80
2022/05/25 00:58:06;;;;;;;5.78;4.22;;;;;;;13.45;100.00;98021.28;2576884;28;20050;-81
2022/05/25 00:59:28;;;;;;;7.63;4.22;;;;;;;13.48;100.00;98022.00;2576729;28;20046;-79
2022/05/25 01:00:43;;;;;;;6.03;4.07;;;;;;;13.47;100.00;98017.66;2576453;28;20128;-80
2022/05/25 01:01:59;;;;;;;11.80;4.15;;;;;;;13.46;100.00;98023.00;2576781;28;20149;-79
2022/05/25 01:03:15;;;;;;;5.55;4.30;;;;;;;13.45;100.00;98019.50;2576675;28;20397;-79
2022/05/25 01:04:30;;;;;;;12.40;4.60;;;;;;;13.48;100.00;98018.50;2576569;28;20061;-80
2022/05/25 01:05:58;;;;;;;6.85;4.30;;;;;;;13.53;100.00;98022.63;2576150;28;20069;-80
2022/05/25 01:07:35;;;;;;;30.10;5.43;;;;;;;13.50;100.00;98022.78;2576758;28;20846;-80
2022/05/25 01:09:34;;;;;;;35.85;5.40;;;;;;;13.44;100.00;98025.69;2576454;28;20049;-80
2022/05/25 01:11:28;;;;;;;46.40;5.95;;;;;;;13.47;100.00;98028.16;2576145;28;20133;-82
2022/05/25 01:12:52;;;;;;;66.13;7.05;;;;;;;13.52;100.00;98023.56;2529854;29;20064;-80
2022/05/25 01:14:47;;;;;;;102.60;8.15;;;;;;;13.44;100.00;98022.22;2528921;29;20696;-80
2022/05/25 01:16:36;;;;;;;36.53;5.88;;;;;;;13.34;100.00;98008.59;2576752;28;20457;-79
2022/05/25 01:17:52;;;;;;;18.02;5.20;;;;;;;13.26;100.00;98014.19;2576670;28;20054;-80
2022/05/25 01:19:19;;;;;;;20.58;5.72;;;;;;;13.21;100.00;98010.94;2576724;28;20524;-80
2022/05/25 01:20:44;;;;;;;9.05;4.85;;;;;;;13.17;100.00;98009.38;2576805;28;20498;-80
2022/05/25 01:22:13;;;;;;;10.57;5.38;;;;;;;13.12;100.00;98015.69;2576420;28;20053;-79
2022/05/25 01:23:47;;;;;;;8.80;4.82;;;;;;;13.07;100.00;98015.03;2576365;28;20088;-80
2022/05/25 01:25:22;;;;;;;7.32;5.25;;;;;;;13.07;100.00;98016.84;2576551;28;20082;-82
2022/05/25 01:27:17;;;;;;;7.63;5.18;;;;;;;13.07;100.00;98017.69;2576532;28;20077;-81
2022/05/25 01:28:41;;;;;;;6.30;4.53;;;;;;;13.07;100.00;98019.47;2576291;28;20051;-80
2022/05/25 01:30:05;;;;;;;6.55;4.45;;;;;;;13.07;100.00;98020.31;2576409;28;20497;-81
2022/05/25 01:31:24;;;;;;;7.70;5.35;;;;;;;13.05;100.00;98013.41;2576411;28;20050;-80
2022/05/25 01:33:05;;;;;;;7.47;4.78;;;;;;;13.03;100.00;98021.38;2565213;28;20564;-81
2022/05/25 01:34:35;;;;;;;6.30;5.00;;;;;;;13.00;100.00;98024.97;2572791;28;20110;-82
2022/05/25 01:36:05;;;;;;;7.20;5.25;;;;;;;12.97;100.00;98027.75;2576401;28;20053;-80
2022/05/25 01:37:30;;;;;;;7.60;5.13;;;;;;;13.01;100.00;98025.84;2576396;28;20399;-80
2022/05/25 01:38:53;;;;;;;5.70;4.43;;;;;;;13.00;100.00;98024.97;2576294;28;20053;-80
2022/05/25 01:40:25;;;;;;;5.28;4.25;;;;;;;13.00;100.00;98024.16;2576144;28;20476;-80
2022/05/25 01:42:01;;;;;;;6.78;4.95;;;;;;;13.03;100.00;98023.13;2575984;28;20054;-81
2022/05/25 01:43:21;;;;;;;7.15;4.97;;;;;;;13.04;100.00;98015.19;2570824;28;20181;-80
2022/05/25 01:44:51;;;;;;;7.32;4.93;;;;;;;13.04;100.00;98020.44;2573860;28;20054;-80
2022/05/25 01:46:26;;;;;;;8.75;4.57;;;;;;;13.03;100.00;98018.75;2576506;28;20047;-80
2022/05/25 01:47:46;;;;;;;5.68;4.22;;;;;;;13.03;100.00;98017.88;2576170;28;20748;-80
2022/05/25 01:49:05;;;;;;;5.22;4.35;;;;;;;13.04;100.00;98019.59;2576404;28;20539;-83
2022/05/25 01:50:28;;;;;;;6.25;4.50;;;;;;;13.07;100.00;98024.72;2575883;28;20057;-81
2022/05/25 01:51:46;;;;;;;;;;;;;;;13.05;100.00;98022.16;2576503;28;20058;-80
2022/05/25 01:53:05;;;;;;;7.18;3.83;;;;;;;13.06;100.00;98023.84;2576201;28;20040;-80
2022/05/25 01:54:24;;;;;;;4.75;3.88;;;;;;;13.07;100.00;98030.81;2576262;28;20104;-80
2022/05/25 01:55:46;;;;;;;4.13;3.72;;;;;;;13.08;100.00;98032.53;2576352;28;20046;-79
2022/05/25 01:57:07;;;;;;;3.92;3.42;;;;;;;13.07;100.00;98032.59;2576490;28;20077;-80
2022/05/25 01:58:25;;;;;;;7.60;4.13;;;;;;;13.04;100.00;98025.72;2576115;28;20104;-80
2022/05/25 01:59:43;;;;;;;4.95;3.67;;;;;;;13.01;100.00;98031.09;2575913;28;20096;-80
2022/05/25 02:01:00;;;;;;;8.27;4.22;;;;;;;12.97;100.00;98021.63;2575812;28;20197;-81
2022/05/25 02:05:25;;;;;;;7.30;4.38;;;;;;;12.99;100.00;98038.19;2576117;28;20058;-80
2022/05/25 02:07:10;;;;;;;4.80;4.25;;;;;;;12.96;100.00;98039.19;2576557;28;20133;-80
2022/05/25 02:08:45;;;;;;;4.60;3.58;;;;;;;12.92;100.00;98037.63;2576261;28;20109;-84
2022/05/25 02:10:07;;;;;;;5.00;3.95;;;;;;;12.90;100.00;98033.34;2576187;28;20052;-79
2022/05/25 02:11:25;;;;;;;5.88;4.22;;;;;;;12.91;100.00;98030.63;2576554;28;20515;-81
2022/05/25 02:13:10;;;;;;;6.55;4.28;;;;;;;12.91;100.00;98024.53;2576294;28;20642;-79
2022/05/25 02:14:41;;;;;;;6.15;4.22;;;;;;;12.92;100.00;98034.13;2576065;28;20046;-81
2022/05/25 02:16:16;;;;;;;4.88;4.20;;;;;;;12.88;100.00;98035.19;2576064;28;20533;-80
2022/05/25 02:18:04;;;;;;;4.70;3.90;;;;;;;12.86;100.00;98037.88;2576176;28;20077;-80
2022/05/25 02:19:25;;;;;;;7.82;3.85;;;;;;;12.94;100.00;98040.16;2534695;29;20064;-79
2022/05/25 02:20:44;;;;;;;7.45;4.60;;;;;;;12.95;100.00;98037.47;2576190;28;20050;-79
2022/05/25 02:22:09;;;;;;;6.70;4.60;;;;;;;12.93;100.00;98036.69;2576411;28;20054;-79
2022/05/25 02:23:48;;;;;;;5.85;4.30;;;;;;;12.90;100.00;98028.94;2575658;28;20050;-80
2022/05/25 02:25:23;;;;;;;4.63;4.10;;;;;;;12.92;100.00;98035.00;2576123;28;20145;-80
2022/05/25 02:26:47;;;;;;;5.53;3.97;;;;;;;12.93;100.00;98030.59;2576307;28;20058;-80
2022/05/25 02:28:24;;;;;;;4.75;3.92;;;;;;;12.91;100.00;98030.63;2576288;28;20390;-83
2022/05/25 02:29:47;;;;;;;5.72;4.32;;;;;;;12.91;100.00;98035.88;2576147;28;20046;-80
2022/05/25 02:31:06;;;;;;;6.57;4.70;;;;;;;12.87;100.00;98028.25;2575878;28;20063;-86
2022/05/25 02:32:30;;;;;;;8.23;4.45;;;;;;;12.87;100.00;98026.44;2575851;28;20116;-80
2022/05/25 02:33:50;;;;;;;7.50;4.25;;;;;;;12.85;100.00;98033.56;2575716;28;20050;-86
2022/05/25 02:35:07;;;;;;;8.20;3.97;;;;;;;12.78;100.00;98035.59;2575886;28;20406;-81
2022/05/25 02:36:24;;;;;;;7.28;4.00;;;;;;;12.73;100.00;98034.94;2575937;28;20080;-79
2022/05/25 02:37:40;;;;;;;4.70;4.00;;;;;;;12.70;100.00;98040.31;2575612;28;20054;-80
2022/05/25 02:38:55;;;;;;;5.60;4.28;;;;;;;12.70;100.00;98032.44;2576024;28;20056;-79
2022/05/25 02:40:13;;;;;;;4.63;4.00;;;;;;;12.70;100.00;98035.94;2576195;28;20060;-83
2022/05/25 02:41:32;;;;;;;7.75;4.80;;;;;;;12.68;100.00;98034.28;2575671;28;20047;-79
2022/05/25 02:42:48;;;;;;;5.32;4.32;;;;;;;12.65;100.00;98032.66;2576067;28;20062;-79
2022/05/25 02:44:03;;;;;;;4.65;3.92;;;;;;;12.65;100.00;98030.03;2575661;28;20061;-85
2022/05/25 02:45:20;;;;;;;4.85;4.20;;;;;;;12.68;100.00;98035.13;2575861;28;20074;-79
2022/05/25 02:46:36;;;;;;;5.07;4.00;;;;;;;12.73;100.00;98027.06;2575603;28;20046;-79
2022/05/25 02:47:51;;;;;;;6.93;4.25;;;;;;;12.76;100.00;98026.06;2575903;28;20104;-79
2022/05/25 02:49:08;;;;;;;6.22;4.50;;;;;;;12.78;100.00;98032.97;2576176;28;20050;-79
2022/05/25 02:50:24;;;;;;;6.10;4.60;;;;;;;12.79;100.00;98025.94;2576044;28;20055;-79
2022/05/25 02:51:40;;;;;;;10.77;4.20;;;;;;;12.78;100.00;98027.72;2575820;28;20611;-79
2022/05/25 02:52:56;;;;;;;6.32;4.30;;;;;;;12.76;100.00;98032.19;2575728;28;20058;-79
2022/05/25 02:54:12;;;;;;;7.20;4.97;;;;;;;12.72;100.00;98030.63;2564732;28;20055;-80
2022/05/25 02:55:27;;;;;;;7.15;4.70;;;;;;;12.71;100.00;98040.25;2569516;28;20469;-83
2022/05/25 02:56:43;;;;;;;7.40;4.65;;;;;;;12.81;100.00;98038.06;2576352;28;20057;-82
2022/05/25 02:57:59;;;;;;;6.10;4.78;;;;;;;12.97;100.00;98054.03;2576085;28;20085;-79
2022/05/25 02:59:15;;;;;;;5.28;4.25;;;;;;;12.98;100.00;98049.63;2575933;28;20057;-78
2022/05/25 03:00:30;;;;;;;7.60;4.78;;;;;;;13.08;100.00;98056.19;2575700;28;20429;-80
2022/05/25 03:01:46;;;;;;;9.05;4.40;;;;;;;13.03;100.00;98055.53;2576630;28;20077;-79
2022/05/25 03:03:01;;;;;;;50.50;6.88;;;;;;;12.91;100.00;98056.06;2576296;28;20054;-78
2022/05/25 03:04:17;;;;;;;123.30;7.82;;;;;;;12.91;100.00;98051.66;2576072;28;20074;-78
2022/05/25 03:05:32;;;;;;;114.43;9.30;;;;;;;12.90;100.00;98049.13;2576191;28;20193;-78
2022/05/25 03:06:48;;;;;;;105.38;7.60;;;;;;;12.85;100.00;98050.19;2577094;28;20372;-79
2022/05/25 03:08:05;;;;;;;69.93;6.07;;;;;;;12.80;100.00;98052.13;2577298;28;20551;-79
2022/05/25 03:09:21;;;;;;;76.75;6.72;;;;;;;12.82;100.00;98046.81;2576029;28;20050;-79
2022/05/25 03:10:36;;;;;;;103.70;8.27;;;;;;;12.78;100.00;98048.72;2575856;28;20097;-79
2022/05/25 03:11:53;;;;;;;119.70;8.13;;;;;;;12.80;100.00;98052.13;2575669;28;20142;-79
2022/05/25 03:13:10;;;;;;;138.55;8.85;;;;;;;12.80;100.00;98052.13;2575485;28;20086;-79
2022/05/25 03:14:25;;;;;;;118.45;7.88;;;;;;;12.78;100.00;98053.09;2575284;28;20110;-79
2022/05/25 03:15:41;;;;;;;85.43;6.63;;;;;;;12.75;100.00;98059.38;2575233;28;20050;-79
2022/05/25 03:16:58;;;;;;;40.80;5.40;;;;;;;12.74;100.00;98059.44;2564935;28;20086;-78
2022/05/25 03:18:14;;;;;;;8.93;4.65;;;;;;;12.69;100.00;98049.13;2568991;28;20081;-80
2022/05/25 03:19:29;;;;;;;5.53;4.93;;;;;;;12.69;100.00;98047.34;2575302;28;20058;-79
2022/05/25 03:20:47;;;;;;;8.75;4.88;;;;;;;12.68;100.00;98050.03;2575185;28;20588;-79
2022/05/25 03:22:02;;;;;;;6.95;4.63;;;;;;;12.69;100.00;98044.72;2575486;28;20448;-79
2022/05/25 03:23:18;;;;;;;5.57;4.53;;;;;;;12.67;100.00;98036.06;2575063;28;20490;-80
2022/05/25 03:24:34;;;;;;;6.88;4.90;;;;;;;12.64;100.00;98038.84;2575677;28;20054;-79
2022/05/25 03:25:50;;;;;;;8.27;5.50;;;;;;;12.62;100.00;98032.75;2575746;28;20129;-78
2022/05/25 03:27:05;;;;;;;6.22;4.97;;;;;;;12.63;100.00;98028.38;2575613;28;20050;-78
2022/05/25 03:28:21;;;;;;;8.38;5.45;;;;;;;12.68;100.00;98026.41;2575276;28;20055;-79
2022/05/25 03:29:36;;;;;;;7.65;4.97;;;;;;;12.68;100.00;98031.66;2575477;28;20046;-80
2022/05/25 03:30:52;;;;;;;6.72;5.35;;;;;;;12.63;100.00;98036.25;2575498;28;20047;-79
2022/05/25 03:32:08;;;;;;;6.95;5.05;;;;;;;12.60;100.00;98031.16;2575220;28;20531;-79
2022/05/25 03:33:24;;;;;;;8.77;4.70;;;;;;;12.60;100.00;98034.59;2574976;28;20659;-79
2022/05/25 03:34:39;;;;;;;6.07;4.75;;;;;;;12.62;100.00;98039.81;2575500;28;20073;-78
2022/05/25 03:35:55;;;;;;;8.45;5.20;;;;;;;12.64;100.00;98043.22;2575386;28;20057;-79
2022/05/25 03:37:10;;;;;;;6.05;4.75;;;;;;;12.61;100.00;98038.09;2575557;28;20684;-79
2022/05/25 03:38:27;;;;;;;5.90;4.40;;;;;;;12.60;100.00;98047.75;2575467;28;20141;-78
2022/05/25 03:39:42;;;;;;;6.57;4.28;;;;;;;12.57;100.00;98040.88;2575341;28;20076;-79
2022/05/25 03:40:59;;;;;;;4.97;4.47;;;;;;;12.57;100.00;98040.88;2575027;28;20197;-79
2022/05/25 03:42:17;;;;;;;6.47;4.32;;;;;;;12.56;100.00;98043.53;2564634;28;20122;-79
2022/05/25 03:43:35;;;;;;;4.85;4.35;;;;;;;12.57;100.00;98046.13;2568760;28;20611;-80
2022/05/25 03:44:50;;;;;;;6.47;4.43;;;;;;;12.64;100.00;98048.47;2575048;28;20386;-80
2022/05/25 03:46:06;;;;;;;6.47;4.68;;;;;;;12.67;100.00;98043.06;2574988;28;20065;-80
2022/05/25 03:47:22;;;;;;;6.95;4.43;;;;;;;12.73;100.00;98050.72;2575195;28;20050;-79
2022/05/25 03:48:37;;;;;;;7.45;5.18;;;;;;;12.75;100.00;98045.38;2575382;28;20148;-79
2022/05/25 03:49:53;;;;;;;6.53;4.45;;;;;;;12.75;100.00;98040.97;2575401;28;20054;-80
2022/05/25 03:51:09;;;;;;;4.95;4.30;;;;;;;12.71;100.00;98047.25;2575330;28;20137;-79
2022/05/25 03:52:25;;;;;;;6.22;4.75;;;;;;;12.74;100.00;98047.16;2575184;28;20206;-78
2022/05/25 03:53:42;;;;;;;7.55;4.32;;;;;;;12.74;100.00;98041.91;2575120;28;20058;-78
2022/05/25 03:54:58;;;;;;;8.40;4.60;;;;;;;12.77;100.00;98044.41;2575616;28;20188;-78
2022/05/25 03:56:13;;;;;;;7.78;4.50;;;;;;;12.78;100.00;98043.47;2576128;28;20104;-79
2022/05/25 03:57:29;;;;;;;6.53;4.15;;;;;;;12.78;100.00;98048.72;2577228;28;20049;-79
2022/05/25 03:58:46;;;;;;;6.55;4.57;;;;;;;12.81;100.00;98051.22;2577477;28;20068;-80
2022/05/25 04:00:04;;;;;;;6.05;4.35;;;;;;;12.82;100.00;98052.91;2577241;28;20872;-80
2022/05/25 04:01:20;;;;;;;5.90;4.82;;;;;;;12.85;100.00;98047.56;2577195;28;20501;-81
2022/05/25 04:02:36;;;;;;;11.65;4.95;;;;;;;12.85;100.00;98044.06;2577488;28;20054;-80
2022/05/25 04:03:51;;;;;;;6.20;4.30;;;;;;;12.85;100.00;98046.69;2576895;28;20073;-79
2022/05/25 04:05:07;;;;;;;5.78;4.43;;;;;;;12.85;100.00;98041.44;2576962;28;20057;-85
2022/05/25 04:06:23;;;;;;;5.20;4.32;;;;;;;12.85;100.00;98036.19;2576788;28;20198;-79
2022/05/25 04:07:44;;;;;;;6.85;4.47;;;;;;;12.85;100.00;98038.81;2576612;28;20061;-80
2022/05/25 04:08:59;;;;;;;5.93;4.82;;;;;;;12.82;100.00;98039.78;2576913;28;20105;-82
2022/05/25 04:10:19;;;;;;;5.60;4.88;;;;;;;12.85;100.00;98038.81;2576828;28;20057;-79
2022/05/25 04:11:35;;;;;;;5.43;4.50;;;;;;;12.84;100.00;98045.81;2576716;28;20768;-80
2022/05/25 04:12:52;;;;;;;5.68;4.70;;;;;;;12.87;100.00;98052.72;2577004;28;20453;-79
2022/05/25 04:14:07;;;;;;;10.75;4.82;;;;;;;12.90;100.00;98051.75;2576734;28;20046;-79
2022/05/25 04:15:26;;;;;;;5.72;4.50;;;;;;;12.95;100.00;98047.13;2576912;28;20054;-79
2022/05/25 04:16:43;;;;;;;5.57;4.55;;;;;;;12.95;100.00;98052.38;2577170;28;20046;-78
2022/05/25 04:17:59;;;;;;;7.50;4.40;;;;;;;12.94;100.00;98055.94;2577251;28;20516;-80
2022/05/25 04:19:15;;;;;;;7.43;4.72;;;;;;;12.96;100.00;98054.94;2577322;28;20054;-80
2022/05/25 04:20:32;;;;;;;6.85;4.32;;;;;;;13.04;100.00;98059.88;2577422;28;20050;-79
2022/05/25 04:21:47;;;;;;;6.05;5.00;;;;;;;13.11;100.00;98057.81;2577212;28;20133;-79
2022/05/25 04:23:08;;;;;;;4.28;3.85;;;;;;;13.10;100.00;98062.22;2576644;28;20413;-79
2022/05/25 04:24:23;;;;;;;6.32;4.40;;;;;;;13.16;100.00;98057.63;2576235;28;20054;-79
2022/05/25 04:25:40;;;;;;;6.53;4.47;;;;;;;13.25;100.00;98067.72;2576580;28;20485;-80
2022/05/25 04:26:59;;;;;;;6.55;4.60;;;;;;;13.17;100.00;98067.22;2576849;28;20050;-79
2022/05/25 04:28:14;;;;;;;6.72;4.55;;;;;;;13.21;100.00;98069.63;2576591;28;20128;-79
2022/05/25 04:29:30;;;;;;;7.25;5.00;;;;;;;13.26;100.00;98067.66;2576412;28;20046;-79
2022/05/25 04:30:46;;;;;;;6.85;4.60;;;;;;;13.18;100.00;98063.66;2576885;28;20054;-82
2022/05/25 04:32:03;;;;;;;5.60;4.40;;;;;;;13.21;100.00;98068.78;2576476;28;20125;-80
2022/05/25 04:33:18;;;;;;;5.50;4.45;;;;;;;13.17;100.00;98072.47;2576609;28;20050;-79
2022/05/25 04:34:35;;;;;;;5.28;4.70;;;;;;;13.12;100.00;98070.88;2576258;28;20536;-80
2022/05/25 04:35:51;;;;;;;5.80;4.30;;;;;;;13.23;100.00;98073.06;2576733;28;20046;-80
2022/05/25 04:38:41;;;;;;;6.60;4.63;;;;;;;13.37;100.00;98068.94;2576677;28;20042;-80
2022/05/25 04:39:56;;;;;;;6.28;4.28;;;;;;;13.32;100.00;98074.41;2576521;28;20417;-82
2022/05/25 04:41:12;;;;;;;6.95;5.18;;;;;;;13.26;100.00;98079.94;2576947;28;20053;-79
2022/05/25 04:42:29;;;;;;;5.97;4.82;;;;;;;13.18;100.00;98074.19;2576960;28;20096;-80
2022/05/25 04:43:44;;;;;;;5.35;4.72;;;;;;;13.19;100.00;98081.13;2576438;28;20053;-79
2022/05/25 04:45:00;;;;;;;11.75;5.13;;;;;;;13.22;100.00;98076.59;2576918;28;20448;-80
2022/05/25 04:46:16;;;;;;;8.70;5.25;;;;;;;13.22;100.00;98076.59;2576497;28;20550;-80
2022/05/25 04:47:34;;;;;;;7.50;4.75;;;;;;;13.22;100.00;98073.97;2576804;28;20115;-83
2022/05/25 04:48:49;;;;;;;6.28;4.68;;;;;;;13.24;100.00;98068.63;2576202;28;20054;-79
2022/05/25 04:50:07;;;;;;;8.50;4.88;;;;;;;13.23;100.00;98073.06;2575928;28;20493;-80
2022/05/25 04:51:23;;;;;;;9.55;5.10;;;;;;;13.20;100.00;98067.94;2576224;28;20366;-81
2022/05/25 04:52:39;;;;;;;6.80;4.88;;;;;;;13.22;100.00;98068.72;2576541;28;20089;-80
2022/05/25 04:53:54;;;;;;;5.72;5.10;;;;;;;13.23;100.00;98072.19;2576377;28;20049;-82
2022/05/25 04:57:19;;;;;;;6.00;5.18;;;;;;;13.22;100.00;98081.00;2576838;28;20050;-79
2022/05/25 04:58:24;;;;;;;6.45;5.10;;;;;;;13.24;100.00;98080.00;2576487;28;20046;-79
2022/05/25 04:59:39;;;;;;;6.78;5.40;;;;;;;13.28;100.00;98080.72;2576492;28;20137;-80
2022/05/25 05:00:55;;;;;;;8.73;4.60;;;;;;;13.30;100.00;98078.88;2576423;28;20061;-78
2022/05/25 05:02:11;;;;;;;5.88;5.20;;;;;;;13.34;100.00;98083.06;2565870;28;20053;-82
2022/05/25 05:03:28;;;;;;;6.13;5.03;;;;;;;13.37;100.00;98074.19;2570086;28;20476;-80
2022/05/25 05:04:44;;;;;;;6.43;5.05;;;;;;;13.40;100.00;98072.25;2576643;28;20691;-79
2022/05/25 05:06:00;;;;;;;7.47;5.05;;;;;;;13.46;100.00;98072.97;2576070;28;20979;-79
2022/05/25 05:07:16;;;;;;;7.22;5.03;;;;;;;13.50;100.00;98077.16;2576022;28;20042;-80
2022/05/25 05:08:32;;;;;;;5.95;4.78;;;;;;;13.51;100.00;98076.22;2576235;28;20046;-79
2022/05/25 05:09:48;;;;;;;5.40;4.68;;;;;;;13.50;100.00;98085.03;2576950;28;20382;-79
2022/05/25 05:11:10;;;;;;;5.97;4.22;;;;;;;13.55;100.00;98083.06;2576494;28;20053;-79
2022/05/25 05:12:27;;;;;;;8.45;5.10;;;;;;;13.58;100.00;98084.69;2576483;28;20584;-79
2022/05/25 05:13:43;;;;;;;5.03;4.53;;;;;;;13.58;100.00;98088.19;2575902;28;20477;-79
2022/05/25 05:14:58;;;;;;;6.07;4.43;;;;;;;13.61;100.00;98095.06;2576789;28;20051;-79
2022/05/25 05:16:16;;;;;;;6.60;3.92;;;;;;;13.66;100.00;98098.34;2576735;28;20088;-79
2022/05/25 05:17:31;;;;;;;6.10;4.20;;;;;;;13.65;100.00;98102.75;2576299;28;20058;-85
2022/05/25 05:18:47;;;;;;;5.55;4.07;;;;;;;13.67;100.00;98106.16;2577035;28;20563;-78
2022/05/25 05:20:04;;;;;;;5.15;4.40;;;;;;;13.68;100.00;98099.13;2576363;28;20065;-79
2022/05/25 05:21:20;;;;;;;4.60;3.95;;;;;;;13.71;100.00;98104.25;2575897;28;20078;-81
2022/05/25 05:22:36;;;;;;;6.22;4.35;;;;;;;13.76;100.00;98109.28;2576031;28;20050;-80
2022/05/25 05:23:52;;;;;;;6.38;4.32;;;;;;;13.78;100.00;98110.94;2575803;28;20042;-78
2022/05/25 05:25:08;;;;;;;7.03;4.72;;;;;;;13.83;100.00;98105.47;2576346;28;20054;-79
2022/05/25 05:26:24;;;;;;;10.43;4.47;;;;;;;13.83;100.00;98114.19;2576417;28;20493;-78
2022/05/25 05:27:39;;;;;;;6.53;4.50;;;;;;;13.84;100.00;98110.63;2576611;28;20050;-79
2022/05/25 05:28:55;;;;;;;6.90;4.25;;;;;;;13.80;100.00;98124.00;2576652;28;20055;-80
2022/05/25 05:30:14;;;;;;;5.82;4.15;;;;;;;13.68;100.00;98121.00;2575898;28;20104;-79
2022/05/25 05:31:29;;;;;;;5.32;4.65;;;;;;;13.75;100.00;98126.84;2576407;28;20069;-83
2022/05/25 05:32:45;;;;;;;6.28;4.85;;;;;;;13.70;100.00;98124.44;2576367;28;20046;-80
2022/05/25 05:34:00;;;;;;;8.07;4.40;;;;;;;13.70;100.00;98124.44;2576285;28;20112;-79
2022/05/25 05:35:16;;;;;;;6.90;4.40;;;;;;;13.79;100.00;98122.28;2576764;28;20500;-80
2022/05/25 05:36:52;;;;;;;7.97;5.57;;;;;;;13.83;100.00;98113.34;2576461;28;20050;-78
2022/05/25 05:38:07;;;;;;;5.72;4.25;;;;;;;13.83;100.00;98113.34;2576561;28;20557;-79
2022/05/25 05:39:27;;;;;;;4.72;4.22;;;;;;;13.92;100.00;98110.28;2576344;28;20062;-79
2022/05/25 05:40:43;;;;;;;5.80;4.93;;;;;;;13.89;100.00;98118.31;2576851;28;20516;-79
2022/05/25 05:42:10;;;;;;;7.25;4.63;;;;;;;13.92;100.00;98114.69;2576482;28;20089;-79
2022/05/25 05:43:26;;;;;;;8.10;4.47;;;;;;;13.91;100.00;98116.47;2579396;28;20484;-82
2022/05/25 05:44:52;;;;;;;6.18;4.50;;;;;;;13.93;100.00;98117.25;2579581;28;20050;-81
2022/05/25 05:46:09;;;;;;;6.53;4.35;;;;;;;13.98;100.00;98123.16;2578395;28;20046;-78
2022/05/25 05:47:31;;;;;;;5.57;4.40;;;;;;;14.01;100.00;98130.03;2576407;28;20065;-78
2022/05/25 05:48:47;;;;;;;5.15;4.40;;;;;;;14.07;100.00;98131.53;2576332;28;20494;-77
2022/05/25 05:50:05;;;;;;;6.38;4.63;;;;;;;14.05;100.00;98130.75;2576739;28;20054;-78
2022/05/25 05:51:21;;;;;;;7.10;5.03;;;;;;;14.03;100.00;98132.63;2576121;28;20050;-78
2022/05/25 05:52:36;;;;;;;8.43;5.68;;;;;;;14.03;100.00;98130.81;2576107;28;20608;-78
2022/05/25 05:53:52;;;;;;;6.10;4.93;;;;;;;14.10;100.00;98136.66;2576189;28;20222;-78
2022/05/25 05:55:08;;;;;;;7.75;4.45;;;;;;;14.07;100.00;98136.78;2576363;28;20256;-78
2022/05/25 05:56:24;;;;;;;6.22;4.25;;;;;;;13.95;100.00;98139.06;2576264;28;20122;-78
2022/05/25 05:57:39;;;;;;;6.95;4.72;;;;;;;13.95;100.00;98139.06;2575958;28;20058;-78
2022/05/25 05:58:55;;;;;;;5.60;4.80;;;;;;;14.02;100.00;98138.81;2576010;28;20509;-78
2022/05/25 06:00:13;;;;;;;7.10;4.78;;;;;;;14.03;100.00;98140.50;2576094;28;20061;-78
2022/05/25 06:01:28;;;;;;;9.73;4.75;;;;;;;14.08;100.00;98138.50;2576159;28;20089;-78
2022/05/25 06:02:44;;;;;;;7.00;4.75;;;;;;;14.13;100.00;98142.63;2576105;28;20500;-79
2022/05/25 06:04:00;;;;;;;6.25;4.57;;;;;;;14.12;100.00;98140.91;2575639;28;20050;-78
2022/05/25 06:05:16;;;;;;;5.60;4.90;;;;;;;14.09;100.00;98137.56;2575605;28;20136;-80
2022/05/25 06:06:32;;;;;;;6.65;4.47;;;;;;;14.11;100.00;98141.00;2576025;28;20042;-78
2022/05/25 06:07:47;;;;;;;9.32;4.88;;;;;;;14.12;100.00;98135.66;2575733;28;20092;-78
2022/05/25 06:09:03;;;;;;;5.72;4.75;;;;;;;14.19;100.00;98135.38;2575789;28;20054;-78
2022/05/25 06:10:19;;;;;;;5.70;4.55;;;;;;;14.27;100.00;98131.44;2575901;28;20125;-78
2022/05/25 06:11:43;;;;;;;6.32;5.20;;;;;;;14.25;100.00;98130.69;2576035;28;20795;-81
2022/05/25 06:12:58;;;;;;;5.00;4.50;;;;;;;14.24;100.00;98130.72;2576135;28;20109;-78
2022/05/25 06:14:14;;;;;;;5.75;5.05;;;;;;;14.26;100.00;98129.75;2575909;28;20054;-78
2022/05/25 06:20:13;;;;;;;4.80;3.97;;;;;;;14.29;100.00;98141.88;2576156;28;20136;-78
2022/05/25 06:21:28;;;;;;;5.10;4.60;;;;;;;14.24;100.00;98144.75;2575796;28;20057;-78